Menoken, ND (58558)

5:13 AM CDT on June 02, 2015 (GMT -0500)
Centerville Lane | | Change Station
CLOSE
Current Station
Personal Weather Station
Location: Bismarck, ND
Elevation: 1811 ft
Nearby Weather Stations

Elev 1811 ft 46.86 °N, 100.75 °W | Updated 6 seconds ago

Overcast
Overcast
59.8 °F
Feels Like 59.8 °F
N
1.2
Wind Variable Wind from WNW
Gusts 5.0 mph

Today
High -- | Low -- °F
--% Chance of Precip.
Yesterday
High -- | Low -- °F
Precip. -- in
5:51 AM 9:29 PM
Full, 100% visible
Pressure 29.78 in
Visibility 10.0 miles
Clouds Few 5500 ft
Dew Point 57 °F
Humidity 92%
Rainfall 0.54 in
Snow Depth Not available.
UV 0 out of 12
Pollen 9.50 out of 12
Air Quality Not available.
Flu Activity Sporadic
METAR KBIS 020952Z AUTO 33010KT 10SM FEW055 17/14 A2980 RMK AO2 RAE40 TSE0855 SLP085 P0000 T01670144

More Conditions Fewer Conditions

Pressure 29.78 in
Visibility 10.0 miles
Clouds Few 5500 ft
Dew Point 57 °F
Humidity 92%
Rainfall 0.54 in
Snow Depth Not available.
UV 0 out of 12
Pollen 9.50 out of 12
Air Quality Not available.
Flu Activity Sporadic
METAR KBIS 020952Z AUTO 33010KT 10SM FEW055 17/14 A2980 RMK AO2 RAE40 TSE0855 SLP085 P0000 T01670144

More Conditions Fewer Conditions

10-Day Weather Forecast

Almanac

Astronomy

Jun. 02, 2015 Rise Set
Actual Time
Civil Twilight
Nautical Twilight
Astronomical Twilight
Moon
Length of Visible Light
Length of Day
Tomorrow will be .
, % of the Moon is Illuminated

Today's Extremes

State Highs State Lows

Community

WunderPhotos

Upload Photos

1,825,902 photos uploaded!

WunderBlogs® & News

Nearby

Air Quality

  Air Quality AQ Index Pollutant
Not available.

Snow Depth

Station Depth Elevation

Earthquake Activity

City Distance Mag. Time & Date
Minimum magnitude displayed is 2.5.

Coastal Water Temperatures

Place Temperature

Stations

Nearby Weather Stations

Station Location Temp. Windchill Dew Point Humidity Wind Precip. Elev Updated Type